createdAt,value
2022-07-29T00:00:45.935Z,101070.50
2022-07-29T00:03:14.934Z,101072.16
2022-07-29T00:05:43.407Z,101068.03
2022-07-29T00:08:12.739Z,101072.59
2022-07-29T00:10:40.670Z,101068.66
2022-07-29T00:13:08.946Z,101081.47
2022-07-29T00:15:36.893Z,101078.31
2022-07-29T00:18:05.129Z,101082.06
2022-07-29T00:20:33.211Z,101079.16
2022-07-29T00:23:00.994Z,101076.69
2022-07-29T00:25:28.925Z,101076.88
2022-07-29T00:27:56.765Z,101077.28
2022-07-29T00:30:24.735Z,101081.66
2022-07-29T00:32:52.580Z,101080.78
2022-07-29T00:35:38.958Z,101086.56
2022-07-29T00:38:06.836Z,101079.56
2022-07-29T00:40:34.609Z,101080.78
2022-07-29T00:43:03.140Z,101084.09
2022-07-29T00:45:31.271Z,101078.94
2022-07-29T00:47:59.179Z,101073.34
2022-07-29T00:50:27.622Z,101070.88
2022-07-29T00:52:55.644Z,101079.34
2022-07-29T00:55:23.896Z,101073.72
2022-07-29T00:57:51.826Z,101072.09
2022-07-29T01:00:22.975Z,101079.31
2022-07-29T01:02:50.951Z,101076.00
2022-07-29T01:05:20.983Z,101076.63
2022-07-29T01:07:52.274Z,101073.31
2022-07-29T01:10:22.262Z,101075.78
2022-07-29T01:12:52.432Z,101074.75
2022-07-29T01:15:20.547Z,101080.34
2022-07-29T01:18:11.268Z,101073.94
2022-07-29T01:21:04.685Z,101077.47
2022-07-29T01:23:48.700Z,101071.47
2022-07-29T01:26:31.334Z,101074.34
2022-07-29T01:29:24.535Z,101073.09
2022-07-29T01:32:03.114Z,101068.78
2022-07-29T01:34:51.636Z,101073.50
2022-07-29T01:37:38.006Z,101073.31
2022-07-29T01:40:09.527Z,101075.16
2022-07-29T01:42:45.554Z,101072.66
2022-07-29T01:45:42.066Z,101076.16
2022-07-29T01:48:28.922Z,101071.00
2022-07-29T01:51:05.528Z,101078.22
2022-07-29T01:54:13.330Z,101081.53
2022-07-29T01:56:43.674Z,101087.94
2022-07-29T01:59:12.739Z,101078.03
2022-07-29T02:01:42.695Z,101087.31
2022-07-29T02:04:28.849Z,101087.91
2022-07-29T02:07:03.121Z,101077.78
2022-07-29T02:09:32.832Z,101080.25
2022-07-29T02:12:02.450Z,101080.66
2022-07-29T02:14:37.451Z,101077.13
2022-07-29T02:17:05.892Z,101081.44
2022-07-29T02:19:34.956Z,101069.66
2022-07-29T02:22:03.624Z,101080.53
2022-07-29T02:24:32.319Z,101072.19
2022-07-29T02:27:02.814Z,101070.31
2022-07-29T02:29:33.598Z,101066.38
2022-07-29T02:32:04.219Z,101066.78
2022-07-29T02:34:33.528Z,101073.38
2022-07-29T02:37:01.479Z,101072.72
2022-07-29T02:39:30.715Z,101082.25
2022-07-29T02:42:11.483Z,101078.53
2022-07-29T02:44:39.661Z,101077.28
2022-07-29T02:47:41.585Z,101073.63
2022-07-29T02:50:24.348Z,101085.19
2022-07-29T02:53:00.193Z,101077.34
2022-07-29T02:55:34.877Z,101077.16
2022-07-29T02:58:24.261Z,101083.72
2022-07-29T03:00:54.392Z,101083.34
2022-07-29T03:03:23.269Z,101085.44
2022-07-29T03:05:56.261Z,101090.47
2022-07-29T03:08:24.734Z,101089.22
2022-07-29T03:10:53.279Z,101084.50
2022-07-29T03:13:21.764Z,101091.91
2022-07-29T03:15:50.657Z,101091.53
2022-07-29T03:18:19.565Z,101090.09
2022-07-29T03:20:47.927Z,101088.44
2022-07-29T03:23:23.915Z,101092.56
2022-07-29T03:25:51.916Z,101105.13
2022-07-29T03:28:20.665Z,101094.16
2022-07-29T03:30:50.660Z,101095.38
2022-07-29T03:33:18.727Z,101092.41
2022-07-29T03:35:46.629Z,101104.38
2022-07-29T03:38:14.426Z,101085.19
2022-07-29T03:41:02.911Z,101093.88
2022-07-29T03:43:35.785Z,101087.47
2022-07-29T03:46:08.418Z,101083.38
2022-07-29T03:48:40.934Z,101086.97
2022-07-29T03:51:08.783Z,101081.22
2022-07-29T03:53:37.721Z,101087.25
2022-07-29T03:56:07.747Z,101090.16
2022-07-29T03:58:35.940Z,101088.94
2022-07-29T04:01:04.231Z,101087.47
2022-07-29T04:03:32.146Z,101106.69
2022-07-29T04:06:07.099Z,101096.59
2022-07-29T04:08:35.986Z,101094.16
2022-07-29T04:11:05.235Z,101096.25
2022-07-29T04:13:33.949Z,101102.84
2022-07-29T04:16:02.950Z,101103.03
2022-07-29T04:18:30.966Z,101103.69
2022-07-29T04:21:23.802Z,101104.97
2022-07-29T04:23:53.980Z,101098.53
2022-07-29T04:26:22.111Z,101104.13
2022-07-29T04:28:51.954Z,101107.03
2022-07-29T04:31:23.889Z,101106.59
2022-07-29T04:33:53.847Z,101104.97
2022-07-29T04:36:29.560Z,101102.69
2022-07-29T04:38:57.924Z,101107.66
2022-07-29T04:41:33.335Z,101107.06
2022-07-29T04:44:07.138Z,101110.81
2022-07-29T04:46:36.501Z,101106.28
2022-07-29T04:49:04.773Z,101112.09
2022-07-29T04:51:32.901Z,101104.22
2022-07-29T04:54:00.803Z,101110.19
2022-07-29T04:56:28.769Z,101115.78
2022-07-29T04:58:56.731Z,101118.06
2022-07-29T05:01:24.726Z,101119.28
2022-07-29T05:03:53.979Z,101115.19
2022-07-29T05:06:24.813Z,101115.34
2022-07-29T05:08:52.710Z,101107.50
2022-07-29T05:11:22.414Z,101113.47
2022-07-29T05:13:51.625Z,101124.63
2022-07-29T05:16:23.017Z,101118.00
2022-07-29T05:18:50.799Z,101112.41
2022-07-29T05:21:18.578Z,101118.59
2022-07-29T05:23:46.516Z,101119.19
2022-07-29T05:26:14.406Z,101117.47
2022-07-29T05:28:42.317Z,101121.34
2022-07-29T05:31:10.615Z,101123.31
2022-07-29T05:33:38.727Z,101126.16
2022-07-29T05:36:09.291Z,101129.56
2022-07-29T05:38:37.358Z,101134.47
2022-07-29T05:41:06.408Z,101133.59
2022-07-29T05:43:34.411Z,101129.84
2022-07-29T05:46:02.258Z,101123.81
2022-07-29T05:48:30.390Z,101117.09
2022-07-29T05:50:58.942Z,101118.50
2022-07-29T05:53:27.771Z,101111.00
2022-07-29T05:55:55.832Z,101114.56
2022-07-29T05:58:23.714Z,101112.25
2022-07-29T06:00:51.462Z,101112.25
2022-07-29T06:03:19.331Z,101115.47
2022-07-29T06:05:47.243Z,101105.38
2022-07-29T06:08:15.077Z,101110.44
2022-07-29T06:10:43.000Z,101108.50
2022-07-29T06:13:10.985Z,101110.59
2022-07-29T06:15:38.968Z,101114.22
2022-07-29T06:18:10.381Z,101104.16
2022-07-29T06:20:38.952Z,101107.56
2022-07-29T06:23:07.121Z,101106.91
2022-07-29T06:25:37.872Z,101111.03
2022-07-29T06:28:05.877Z,101107.97
2022-07-29T06:30:33.832Z,101104.41
2022-07-29T06:33:03.083Z,101111.09
2022-07-29T06:35:38.454Z,101105.81
2022-07-29T06:38:33.878Z,101107.94
2022-07-29T06:41:01.550Z,101110.72
2022-07-29T06:43:51.931Z,101108.38
2022-07-29T06:46:23.491Z,101110.31
2022-07-29T06:48:53.068Z,101106.78
2022-07-29T06:51:23.342Z,101113.25
2022-07-29T06:53:59.448Z,101112.69
2022-07-29T06:56:38.477Z,101110.44
2022-07-29T06:59:09.772Z,101107.25
2022-07-29T07:01:39.520Z,101113.91
2022-07-29T07:04:07.702Z,101111.91
2022-07-29T07:06:36.009Z,101111.09
2022-07-29T07:09:04.511Z,101104.16
2022-07-29T07:11:32.437Z,101104.50
2022-07-29T07:14:03.759Z,101107.25
2022-07-29T07:16:32.774Z,101109.78
2022-07-29T07:19:03.901Z,101104.75
2022-07-29T07:21:31.860Z,101101.97
2022-07-29T07:24:00.782Z,101102.59
2022-07-29T07:26:29.289Z,101102.81
2022-07-29T07:28:57.086Z,101095.16
2022-07-29T07:31:24.992Z,101106.19
2022-07-29T07:33:54.620Z,101106.72
2022-07-29T07:36:23.293Z,101105.78
2022-07-29T07:38:51.323Z,101114.63
2022-07-29T07:41:19.619Z,101101.09
2022-07-29T07:43:47.562Z,101100.56
2022-07-29T07:46:16.144Z,101106.91
2022-07-29T07:48:44.085Z,101100.63
2022-07-29T07:51:12.818Z,101108.50
2022-07-29T07:53:40.697Z,101118.16
2022-07-29T07:56:11.434Z,101102.22
2022-07-29T07:58:40.325Z,101102.72
2022-07-29T08:01:10.179Z,101108.06
2022-07-29T08:03:39.238Z,101105.97
2022-07-29T08:06:07.422Z,101109.34
2022-07-29T08:08:35.946Z,101105.97
2022-07-29T08:11:09.578Z,101114.41
2022-07-29T08:13:39.171Z,101102.91
2022-07-29T08:16:14.342Z,101105.69
2022-07-29T08:18:45.152Z,101101.19
2022-07-29T08:21:15.471Z,101108.91
2022-07-29T08:24:15.792Z,101104.44
2022-07-29T08:26:44.910Z,101104.03
2022-07-29T08:29:18.324Z,101108.91
2022-07-29T08:31:48.084Z,101092.94
2022-07-29T08:34:16.040Z,101099.56
2022-07-29T08:36:44.034Z,101104.34
2022-07-29T08:39:11.833Z,101098.97
2022-07-29T08:41:41.515Z,101100.28
2022-07-29T08:44:30.563Z,101102.13
2022-07-29T08:47:02.747Z,101102.56
2022-07-29T08:49:30.722Z,101106.16
2022-07-29T08:51:59.913Z,101100.94
2022-07-29T08:54:28.860Z,101103.69
2022-07-29T08:56:57.190Z,101112.03
2022-07-29T08:59:27.939Z,101102.69
2022-07-29T09:02:01.438Z,101111.78
2022-07-29T09:04:35.580Z,101104.31
2022-07-29T09:07:05.468Z,101099.44
2022-07-29T09:09:35.191Z,101096.22
2022-07-29T09:12:07.207Z,101089.34
2022-07-29T09:14:35.528Z,101086.84
2022-07-29T09:17:03.514Z,101090.09
2022-07-29T09:19:38.755Z,101082.56
2022-07-29T09:22:29.634Z,101076.84
2022-07-29T09:24:57.656Z,101088.28
2022-07-29T09:27:30.233Z,101088.25
2022-07-29T09:30:07.073Z,101088.28
2022-07-29T09:32:55.635Z,101088.28
2022-07-29T09:35:26.238Z,101078.50
2022-07-29T09:37:54.193Z,101082.63
2022-07-29T09:40:29.149Z,101081.28
2022-07-29T09:42:58.512Z,101071.25
2022-07-29T09:45:34.950Z,101077.81
2022-07-29T09:48:24.032Z,101082.38
2022-07-29T09:50:53.683Z,101083.47
2022-07-29T09:53:35.907Z,101070.59
2022-07-29T09:59:30.043Z,101074.69
2022-07-29T10:01:58.480Z,101069.72
2022-07-29T10:04:41.354Z,101073.00
2022-07-29T10:07:10.277Z,101069.41
2022-07-29T10:09:38.064Z,101069.97
2022-07-29T10:12:10.267Z,101061.03
2022-07-29T10:14:39.892Z,101068.16
2022-07-29T10:17:09.070Z,101064.94
2022-07-29T10:19:44.017Z,101067.09
2022-07-29T10:22:12.430Z,101065.00
2022-07-29T10:24:40.607Z,101055.72
2022-07-29T10:27:10.011Z,101056.84
2022-07-29T10:29:38.648Z,101055.22
2022-07-29T10:32:32.637Z,101045.09
2022-07-29T10:35:23.417Z,101046.47
2022-07-29T10:37:56.924Z,101043.16
2022-07-29T10:41:02.352Z,101046.94
2022-07-29T10:43:39.506Z,101045.25
2022-07-29T10:46:12.899Z,101038.66
2022-07-29T10:48:59.435Z,101030.47
2022-07-29T10:51:50.495Z,101042.78
2022-07-29T10:54:37.220Z,101047.97
2022-07-29T10:57:17.326Z,101038.69
2022-07-29T11:00:10.359Z,101035.91
2022-07-29T11:02:43.520Z,101036.47
2022-07-29T11:05:14.363Z,101035.13
2022-07-29T11:08:19.794Z,101033.53
2022-07-29T11:10:50.772Z,101033.84
2022-07-29T11:13:43.867Z,101023.22
2022-07-29T11:16:12.041Z,101022.97
2022-07-29T11:19:13.772Z,101014.53
2022-07-29T11:21:55.285Z,101016.97
2022-07-29T11:24:30.330Z,101019.16
2022-07-29T11:27:19.786Z,101021.63
2022-07-29T11:30:05.403Z,101015.09
2022-07-29T11:32:44.774Z,101011.81
2022-07-29T11:35:37.467Z,101011.78
2022-07-29T11:38:29.004Z,101003.59
2022-07-29T11:41:15.599Z,101005.50
2022-07-29T11:43:53.706Z,101006.31
2022-07-29T11:46:43.793Z,101009.00
2022-07-29T11:49:13.896Z,101007.94
2022-07-29T11:54:57.137Z,101006.03
2022-07-29T11:57:36.642Z,100998.94
2022-07-29T12:00:14.670Z,101007.69
2022-07-29T12:02:48.648Z,100996.75
2022-07-29T12:05:48.137Z,100996.75
2022-07-29T12:08:23.923Z,100998.94
2022-07-29T12:10:52.444Z,100992.13
2022-07-29T12:13:22.238Z,100997.63
2022-07-29T12:16:00.121Z,100993.47
2022-07-29T12:18:28.344Z,100990.75
2022-07-29T12:21:03.899Z,100990.38
2022-07-29T12:23:35.828Z,100997.97
2022-07-29T12:26:10.894Z,100996.22
2022-07-29T12:28:40.054Z,100998.31
2022-07-29T12:31:15.111Z,100994.09
2022-07-29T12:34:03.202Z,100994.22
2022-07-29T12:36:31.105Z,100990.75
2022-07-29T12:38:59.045Z,100980.91
2022-07-29T12:41:29.644Z,100979.25
2022-07-29T12:43:57.676Z,100987.47
2022-07-29T12:46:25.801Z,100972.78
2022-07-29T12:48:59.858Z,100967.34
2022-07-29T12:51:37.194Z,100975.03
2022-07-29T12:54:04.992Z,100967.66
2022-07-29T12:56:42.603Z,100967.09
2022-07-29T12:59:23.183Z,100982.00
2022-07-29T13:01:54.099Z,100971.81
2022-07-29T13:04:30.039Z,100972.69
2022-07-29T13:07:08.585Z,100970.31
2022-07-29T13:09:41.148Z,100970.94
2022-07-29T13:12:11.276Z,100968.47
2022-07-29T13:14:45.187Z,100960.53
2022-07-29T13:17:18.799Z,100957.50
2022-07-29T13:19:52.090Z,100966.56
2022-07-29T13:22:24.986Z,100949.13
2022-07-29T13:24:57.239Z,100950.78
2022-07-29T13:27:27.345Z,100951.31
2022-07-29T13:30:01.716Z,100947.78
2022-07-29T13:32:31.290Z,100947.22
2022-07-29T13:35:05.105Z,100952.34
2022-07-29T13:37:36.182Z,100949.22
2022-07-29T13:40:04.554Z,100952.19
2022-07-29T13:42:33.798Z,100943.88
2022-07-29T13:45:02.251Z,100941.19
2022-07-29T13:47:32.487Z,100938.50
2022-07-29T13:50:06.636Z,100937.00
2022-07-29T13:52:35.824Z,100933.22
2022-07-29T13:55:05.547Z,100933.81
2022-07-29T13:57:33.687Z,100935.50
2022-07-29T14:00:04.156Z,100933.63
2022-07-29T14:02:40.998Z,100928.16
2022-07-29T14:05:12.776Z,100928.34
2022-07-29T14:07:41.006Z,100930.69
2022-07-29T14:10:10.864Z,100938.84
2022-07-29T14:12:39.471Z,100930.84
2022-07-29T14:15:10.488Z,100928.25
2022-07-29T14:17:38.596Z,100931.81
2022-07-29T14:20:07.092Z,100924.34
2022-07-29T14:22:38.946Z,100916.63
2022-07-29T14:25:14.722Z,100914.59
2022-07-29T14:27:44.855Z,100912.72
2022-07-29T14:30:13.259Z,100907.47
2022-07-29T14:32:41.581Z,100908.06
2022-07-29T14:35:09.922Z,100908.06
2022-07-29T14:37:40.493Z,100903.41
2022-07-29T14:40:10.553Z,100900.47
2022-07-29T14:42:39.612Z,100900.22
2022-07-29T14:45:08.535Z,100897.47
2022-07-29T14:47:36.824Z,100895.59
2022-07-29T14:50:06.303Z,100894.47
2022-07-29T14:52:34.156Z,100889.56
2022-07-29T14:55:02.284Z,100891.47
2022-07-29T14:57:30.092Z,100887.13
2022-07-29T14:59:58.236Z,100881.69
2022-07-29T15:02:45.851Z,100883.56
2022-07-29T15:05:14.518Z,100879.13
2022-07-29T15:07:42.345Z,100878.81
2022-07-29T15:10:10.701Z,100872.78
2022-07-29T15:12:42.588Z,100871.09
2022-07-29T15:15:11.098Z,100875.72
2022-07-29T15:17:39.040Z,100871.63
2022-07-29T15:20:07.443Z,100865.06
2022-07-29T15:22:38.354Z,100863.38
2022-07-29T15:25:11.722Z,100860.38
2022-07-29T15:27:41.492Z,100863.34
2022-07-29T15:30:32.558Z,100854.88
2022-07-29T15:33:11.137Z,100854.06
2022-07-29T15:35:40.351Z,100849.47
2022-07-29T15:38:16.032Z,100854.38
2022-07-29T15:40:45.721Z,100848.59
2022-07-29T15:43:14.093Z,100845.53
2022-07-29T15:46:04.315Z,100846.56
2022-07-29T15:48:32.703Z,100836.16
2022-07-29T15:51:01.295Z,100838.31
2022-07-29T15:53:30.050Z,100839.16
2022-07-29T15:55:58.354Z,100832.91
2022-07-29T15:58:26.249Z,100826.66
2022-07-29T16:00:56.613Z,100838.06
2022-07-29T16:03:24.963Z,100831.28
2022-07-29T16:05:53.019Z,100839.78
2022-07-29T16:08:21.030Z,100829.47
2022-07-29T16:10:48.941Z,100836.81
2022-07-29T16:13:17.075Z,100838.75
2022-07-29T16:16:02.255Z,100842.78
2022-07-29T16:18:32.270Z,100833.75
2022-07-29T16:21:00.270Z,100843.25
2022-07-29T16:23:28.216Z,100831.25
2022-07-29T16:26:00.803Z,100836.41
2022-07-29T16:28:31.013Z,100831.25
2022-07-29T16:30:59.360Z,100833.19
2022-07-29T16:33:54.767Z,100832.38
2022-07-29T16:36:18.441Z,100821.81
2022-07-29T16:38:47.548Z,100834.34
2022-07-29T16:41:15.608Z,100830.50
2022-07-29T16:43:43.558Z,100829.38
2022-07-29T16:46:15.642Z,100831.03
2022-07-29T16:48:50.582Z,100832.94
2022-07-29T16:51:19.684Z,100838.66
2022-07-29T16:53:49.861Z,100840.00
2022-07-29T16:56:18.766Z,100845.16
2022-07-29T16:58:46.670Z,100844.06
2022-07-29T17:01:14.651Z,100854.66
2022-07-29T17:04:01.511Z,100849.47
2022-07-29T17:06:29.770Z,100851.31
2022-07-29T17:08:57.704Z,100850.56
2022-07-29T17:11:52.695Z,100850.56
2022-07-29T17:14:15.119Z,100850.44
2022-07-29T17:16:43.997Z,100847.47
2022-07-29T17:19:31.270Z,100850.25
2022-07-29T17:22:10.475Z,100852.41
2022-07-29T17:24:42.937Z,100852.09
2022-07-29T17:27:11.747Z,100848.25
2022-07-29T17:29:39.828Z,100854.78
2022-07-29T17:32:09.282Z,100853.38
2022-07-29T17:34:41.971Z,100854.19
2022-07-29T17:37:12.092Z,100854.44
2022-07-29T17:39:43.043Z,100853.00
2022-07-29T17:42:13.211Z,100854.03
2022-07-29T17:44:43.508Z,100855.25
2022-07-29T17:47:15.887Z,100846.97
2022-07-29T17:49:45.536Z,100860.53
2022-07-29T17:52:14.101Z,100861.56
2022-07-29T17:54:42.550Z,100859.41
2022-07-29T17:57:12.570Z,100852.09
2022-07-29T17:59:41.040Z,100856.50
2022-07-29T18:02:10.264Z,100859.22
2022-07-29T18:04:39.329Z,100844.00
2022-07-29T18:07:10.599Z,100852.34
2022-07-29T18:09:44.014Z,100847.66
2022-07-29T18:12:18.802Z,100857.94
2022-07-29T18:14:49.783Z,100847.00
2022-07-29T18:17:51.907Z,100845.03
2022-07-29T18:23:57.438Z,100843.69
2022-07-29T18:29:35.943Z,100851.38
2022-07-29T18:32:04.244Z,100862.16
2022-07-29T18:34:32.426Z,100854.78
2022-07-29T18:37:01.407Z,100862.84
2022-07-29T18:39:29.596Z,100859.72
2022-07-29T18:41:57.511Z,100859.41
2022-07-29T18:44:25.197Z,100859.00
2022-07-29T18:46:53.306Z,100859.19
2022-07-29T18:49:23.150Z,100858.88
2022-07-29T18:51:52.466Z,100857.72
2022-07-29T18:54:20.398Z,100860.38
2022-07-29T18:56:48.498Z,100856.19
2022-07-29T18:59:20.779Z,100855.88
2022-07-29T19:01:49.164Z,100859.31
2022-07-29T19:04:17.805Z,100863.81
2022-07-29T19:06:45.906Z,100862.19
2022-07-29T19:09:49.201Z,100860.84
2022-07-29T19:12:20.185Z,100863.72
2022-07-29T19:14:48.059Z,100865.03
2022-07-29T19:17:17.297Z,100867.41
2022-07-29T19:19:57.470Z,100877.56
2022-07-29T19:22:25.437Z,100890.28
2022-07-29T19:24:53.600Z,100881.03
2022-07-29T19:27:21.576Z,100877.63
2022-07-29T19:29:49.688Z,100876.38
2022-07-29T19:32:25.374Z,100878.34
2022-07-29T19:35:15.254Z,100874.13
2022-07-29T19:37:43.735Z,100875.56
2022-07-29T19:40:12.816Z,100875.09
2022-07-29T19:42:40.825Z,100864.75
2022-07-29T19:45:09.239Z,100877.47
2022-07-29T19:47:37.346Z,100866.91
2022-07-29T19:50:05.717Z,100869.94
2022-07-29T19:52:33.737Z,100873.13
2022-07-29T19:55:07.065Z,100865.72
2022-07-29T19:57:41.183Z,100875.25
2022-07-29T20:00:18.378Z,100881.75
2022-07-29T20:02:52.058Z,100871.88
2022-07-29T20:05:20.168Z,100870.94
2022-07-29T20:07:49.194Z,100875.28
2022-07-29T20:10:41.840Z,100878.00
2022-07-29T20:13:09.906Z,100884.63
2022-07-29T20:16:27.958Z,100882.94
2022-07-29T20:19:21.877Z,100884.50
2022-07-29T20:21:51.517Z,100878.16
2022-07-29T20:24:45.104Z,100886.13
2022-07-29T20:27:40.972Z,100881.22
2022-07-29T20:30:09.934Z,100874.88
2022-07-29T20:32:40.399Z,100877.81
2022-07-29T20:35:12.356Z,100876.63
2022-07-29T20:38:07.121Z,100873.91
2022-07-29T20:40:37.663Z,100869.84
2022-07-29T20:43:06.052Z,100872.63
2022-07-29T20:45:35.555Z,100873.47
2022-07-29T20:48:03.426Z,100868.31
2022-07-29T20:50:31.318Z,100876.63
2022-07-29T20:53:01.030Z,100866.03
2022-07-29T20:55:53.886Z,100877.31
2022-07-29T20:58:21.719Z,100870.50
2022-07-29T21:00:52.799Z,100872.13
2022-07-29T21:03:20.529Z,100868.03
2022-07-29T21:05:48.479Z,100862.84
2022-07-29T21:08:16.444Z,100866.03
2022-07-29T21:10:44.292Z,100857.91
2022-07-29T21:13:12.587Z,100864.38
2022-07-29T21:16:14.903Z,100865.06
2022-07-29T21:19:18.144Z,100865.19
2022-07-29T21:21:36.279Z,100861.22
2022-07-29T21:24:29.892Z,100854.38
2022-07-29T21:27:21.357Z,100853.22
2022-07-29T21:29:49.665Z,100856.00
2022-07-29T21:32:29.764Z,100860.59
2022-07-29T21:34:58.346Z,100853.78
2022-07-29T21:37:28.286Z,100855.44
2022-07-29T21:39:56.171Z,100838.38
2022-07-29T21:42:30.027Z,100855.44
2022-07-29T21:44:58.180Z,100851.41
2022-07-29T21:47:31.932Z,100859.06
2022-07-29T21:50:02.498Z,100854.50
2022-07-29T21:52:30.940Z,100853.91
2022-07-29T21:54:59.393Z,100849.91
2022-07-29T21:57:27.072Z,100855.91
2022-07-29T21:59:57.528Z,100852.38
2022-07-29T22:02:27.636Z,100850.03
2022-07-29T22:04:55.442Z,100847.41
2022-07-29T22:07:23.229Z,100855.16
2022-07-29T22:09:50.959Z,100860.91
2022-07-29T22:12:18.817Z,100855.06
2022-07-29T22:14:46.649Z,100846.38
2022-07-29T22:17:14.811Z,100839.91
2022-07-29T22:19:42.818Z,100841.56
2022-07-29T22:22:15.658Z,100836.63
2022-07-29T22:24:43.702Z,100834.16
2022-07-29T22:27:11.951Z,100844.16
2022-07-29T22:29:40.048Z,100838.25
2022-07-29T22:32:07.799Z,100843.16
2022-07-29T22:34:37.834Z,100833.66
2022-07-29T22:37:06.058Z,100840.47
2022-07-29T22:39:33.891Z,100830.94
2022-07-29T22:42:01.646Z,100829.53
2022-07-29T22:44:29.548Z,100825.38
2022-07-29T22:46:57.796Z,100835.47
2022-07-29T22:49:26.027Z,100827.72
2022-07-29T22:51:53.796Z,100828.94
2022-07-29T22:54:22.102Z,100826.44
2022-07-29T22:56:49.962Z,100830.78
2022-07-29T22:59:17.831Z,100823.97
2022-07-29T23:01:45.916Z,100834.75
2022-07-29T23:04:13.675Z,100822.94
2022-07-29T23:06:41.419Z,100826.63
2022-07-29T23:09:12.071Z,100835.88
2022-07-29T23:11:39.951Z,100814.03
2022-07-29T23:14:09.628Z,100822.13
2022-07-29T23:16:37.617Z,100818.16
2022-07-29T23:19:05.301Z,100815.47
2022-07-29T23:21:33.269Z,100816.06
2022-07-29T23:24:01.064Z,100809.38
2022-07-29T23:26:28.910Z,100811.84
2022-07-29T23:28:56.654Z,100817.13
2022-07-29T23:31:24.527Z,100813.22
2022-07-29T23:33:52.256Z,100820.84
2022-07-29T23:36:21.051Z,100821.31
2022-07-29T23:38:49.007Z,100825.91
2022-07-29T23:41:16.737Z,100818.28
2022-07-29T23:43:44.496Z,100814.50
2022-07-29T23:46:12.322Z,100819.09
2022-07-29T23:48:43.253Z,100818.63
2022-07-29T23:51:10.932Z,100810.53
2022-07-29T23:53:39.006Z,100812.50
2022-07-29T23:56:22.409Z,100806.34
2022-07-29T23:58:50.393Z,100810.94
